Time;durP1;ratioP1;P1;durP2;ratioP2;P2;SDS_P1;SDS_P2;PMS_P1;PMS_P2;Temp;Humidity;BMP_temperature;BMP_pressure;BME280_temperature;BME280_humidity;BME280_pressure;Samples;Min_cycle;Max_cycle;Signal;HPM_P1;HPM_P2
2022/08/18 00:01:42;;;;;;;27.43;24.97;;;1.30;99.90;;;;;;5077956;28;20248;-70
2022/08/18 00:04:10;;;;;;;28.07;25.37;;;0.60;99.90;;;;;;5092677;28;20648;-69
2022/08/18 00:06:36;;;;;;;25.50;23.20;;;0.20;99.90;;;;;;5077459;28;20172;-70
2022/08/18 00:09:05;;;;;;;26.57;23.80;;;-0.10;99.90;;;;;;5077572;28;20188;-70
2022/08/18 00:11:35;;;;;;;28.30;25.70;;;0.20;99.90;;;;;;5077223;28;20233;-70
2022/08/18 00:14:00;;;;;;;32.83;25.50;;;-1.40;99.90;;;;;;5077326;28;20179;-70
2022/08/18 00:16:26;;;;;;;27.40;24.90;;;-0.90;99.90;;;;;;5078729;28;20208;-71
2022/08/18 00:18:52;;;;;;;26.17;23.63;;;-0.80;99.90;;;;;;5077358;28;20219;-70
2022/08/18 00:21:18;;;;;;;27.70;25.03;;;0.00;99.90;;;;;;5078123;28;20164;-70
2022/08/18 00:23:44;;;;;;;29.13;26.30;;;-1.00;99.90;;;;;;5077529;28;20633;-70
2022/08/18 00:26:10;;;;;;;27.50;24.87;;;-0.30;99.90;;;;;;5081102;28;20178;-70
2022/08/18 00:28:35;;;;;;;28.27;25.40;;;-0.80;99.90;;;;;;5076960;28;20593;-70
2022/08/18 00:31:03;;;;;;;26.83;24.13;;;-0.90;99.90;;;;;;5091623;28;20194;-70
2022/08/18 00:33:29;;;;;;;26.03;23.47;;;-0.30;99.90;;;;;;5077788;28;20183;-71
2022/08/18 00:35:55;;;;;;;27.60;25.10;;;-0.30;99.90;;;;;;5077562;28;20179;-71
2022/08/18 00:38:21;;;;;;;31.20;25.63;;;-0.40;99.90;;;;;;5077559;28;20214;-69
2022/08/18 00:40:50;;;;;;;30.23;27.13;;;-0.50;99.90;;;;;;5074810;28;20187;-72
2022/08/18 00:43:43;;;;;;;31.20;28.37;;;-0.50;99.90;;;;;;5076768;28;20203;-74
2022/08/18 00:46:14;;;;;;;31.87;28.57;;;-1.70;99.90;;;;;;5086195;28;20186;-72
2022/08/18 00:48:40;;;;;;;31.27;28.07;;;-2.10;99.90;;;;;;5076127;28;20374;-70
2022/08/18 00:51:17;;;;;;;31.00;27.90;;;-2.60;99.90;;;;;;5077248;28;20297;-70
2022/08/18 00:53:55;;;;;;;33.33;30.07;;;-1.80;99.90;;;;;;5076519;28;20719;-68
2022/08/18 00:56:30;;;;;;;31.77;28.70;;;-1.50;99.90;;;;;;5076199;28;20232;-71
2022/08/18 00:59:03;;;;;;;32.97;29.60;;;-1.50;99.90;;;;;;5076510;28;20202;-70
2022/08/18 01:01:32;;;;;;;31.13;27.83;;;-1.70;99.90;;;;;;5077733;28;20183;-71
2022/08/18 01:04:07;;;;;;;33.73;30.47;;;-1.60;99.90;;;;;;5077302;28;20206;-71
2022/08/18 01:06:40;;;;;;;38.10;29.80;;;-1.90;99.90;;;;;;5076783;28;20297;-69
2022/08/18 01:09:07;;;;;;;32.80;29.53;;;-1.20;99.90;;;;;;5076157;28;20210;-70
2022/08/18 01:11:36;;;;;;;33.17;29.77;;;-0.80;99.90;;;;;;5076251;28;20183;-69
2022/08/18 01:14:04;;;;;;;36.10;32.60;;;-1.00;99.90;;;;;;5076516;28;20237;-72
2022/08/18 01:22:10;;;;;;;34.47;30.97;;;-1.20;99.90;;;;;;5083952;28;20186;-70
2022/08/18 01:27:21;;;;;;;37.60;33.50;;;-0.90;99.90;;;;;;5076881;28;20277;-69
2022/08/18 01:29:48;;;;;;;36.17;32.37;;;-0.60;99.90;;;;;;5076642;28;20549;-71
2022/08/18 01:32:21;;;;;;;40.60;35.93;;;-0.70;99.90;;;;;;5074300;28;20187;-69
2022/08/18 01:34:49;;;;;;;39.17;34.67;;;-1.20;99.90;;;;;;5075465;28;20255;-70
2022/08/18 01:37:17;;;;;;;44.57;36.53;;;-0.60;99.90;;;;;;5076804;28;20197;-71
2022/08/18 01:39:44;;;;;;;39.93;34.83;;;0.10;99.90;;;;;;5076081;28;20210;-72
2022/08/18 01:42:13;;;;;;;35.57;31.97;;;-0.20;99.90;;;;;;5075827;28;20193;-70
2022/08/18 01:44:42;;;;;;;38.37;33.47;;;-0.70;99.90;;;;;;5077409;28;20175;-71
2022/08/18 01:47:10;;;;;;;37.53;33.10;;;-0.70;99.90;;;;;;5076754;28;20241;-70
2022/08/18 01:49:37;;;;;;;38.37;34.47;;;-0.80;99.90;;;;;;5076181;28;20211;-72
2022/08/18 01:52:05;;;;;;;56.03;38.67;;;-0.10;99.90;;;;;;5082161;28;20191;-71
2022/08/18 01:54:32;;;;;;;40.47;35.07;;;-0.50;99.90;;;;;;5076623;28;20184;-71
2022/08/18 01:56:58;;;;;;;45.93;38.97;;;-1.80;99.90;;;;;;5075554;28;20214;-71
2022/08/18 01:59:24;;;;;;;47.93;38.10;;;-1.10;99.90;;;;;;5081728;28;20207;-69
2022/08/18 02:01:54;;;;;;;37.87;33.93;;;-0.90;99.90;;;;;;5076044;28;20191;-71
2022/08/18 02:04:27;;;;;;;43.27;38.70;;;-1.10;99.90;;;;;;5076145;28;20258;-71
2022/08/18 02:06:54;;;;;;;45.27;38.63;;;-1.70;99.90;;;;;;5076451;28;20192;-69
2022/08/18 02:09:21;;;;;;;40.80;35.60;;;-1.70;99.90;;;;;;5076164;28;20219;-71
2022/08/18 02:11:46;;;;;;;41.07;36.67;;;-2.10;99.90;;;;;;5075989;28;20186;-69
2022/08/18 02:14:13;;;;;;;39.43;35.33;;;-2.50;99.90;;;;;;5076962;28;20494;-70
2022/08/18 02:16:38;;;;;;;39.33;35.03;;;-3.40;99.90;;;;;;5075973;28;20179;-70
2022/08/18 02:19:04;;;;;;;45.33;37.17;;;-4.60;99.90;;;;;;5076315;28;20222;-73
2022/08/18 02:21:30;;;;;;;45.63;38.10;;;-5.30;99.90;;;;;;5075972;28;20186;-69
2022/08/18 02:23:55;;;;;;;44.10;38.60;;;-3.60;99.90;;;;;;5076109;28;20190;-69
2022/08/18 02:26:22;;;;;;;42.90;38.23;;;-4.70;99.90;;;;;;5076468;28;20180;-70
2022/08/18 02:28:48;;;;;;;41.53;37.13;;;-4.90;99.90;;;;;;5076693;28;20270;-69
2022/08/18 02:31:20;;;;;;;41.43;33.70;;;-5.10;99.90;;;;;;5076450;28;20606;-69
2022/08/18 02:33:46;;;;;;;47.87;39.97;;;-3.40;99.90;;;;;;5076321;28;20320;-68
2022/08/18 02:36:13;;;;;;;45.07;37.60;;;-1.50;99.90;;;;;;5079874;28;20206;-70
2022/08/18 02:38:40;;;;;;;44.90;39.33;;;1.90;99.90;;;;;;5081338;28;20207;-72
2022/08/18 02:41:09;;;;;;;46.80;39.73;;;2.90;99.90;;;;;;5075838;28;20483;-71
2022/08/18 02:43:36;;;;;;;42.17;37.03;;;2.50;99.90;;;;;;5075775;28;20179;-69
2022/08/18 02:46:03;;;;;;;41.87;36.87;;;12.10;99.90;;;;;;5082286;28;20199;-70
2022/08/18 02:48:34;;;;;;;43.53;38.47;;;12.80;99.90;;;;;;5078689;28;20233;-69
2022/08/18 02:51:09;;;;;;;41.90;37.20;;;12.30;99.90;;;;;;5079732;28;20203;-70
2022/08/18 02:53:36;;;;;;;48.23;38.63;;;12.80;99.90;;;;;;5078313;28;20232;-68
2022/08/18 02:56:16;;;;;;;42.53;38.07;;;12.80;99.90;;;;;;5079173;28;20194;-70
2022/08/18 02:58:41;;;;;;;44.47;37.33;;;12.90;99.90;;;;;;5078220;28;20207;-72
2022/08/18 03:01:07;;;;;;;40.20;35.47;;;13.30;99.90;;;;;;5078883;28;20266;-71
2022/08/18 03:03:33;;;;;;;39.83;34.13;;;13.40;99.90;;;;;;5076791;28;20670;-71
2022/08/18 03:05:59;;;;;;;44.87;36.97;;;13.40;99.90;;;;;;5079490;28;20191;-69
2022/08/18 03:08:24;;;;;;;38.63;34.43;;;13.30;99.90;;;;;;5079116;28;20187;-70
2022/08/18 03:10:51;;;;;;;40.90;33.23;;;13.10;99.90;;;;;;5078942;28;20533;-71
2022/08/18 03:13:17;;;;;;;35.07;31.37;;;12.70;99.90;;;;;;5079314;28;20184;-70
2022/08/18 03:15:43;;;;;;;36.67;32.27;;;12.50;99.90;;;;;;5088328;28;20183;-69
2022/08/18 03:18:11;;;;;;;34.97;31.37;;;12.70;99.90;;;;;;5078553;28;20199;-72
2022/08/18 03:20:36;;;;;;;41.50;32.23;;;12.70;99.90;;;;;;5079474;28;20500;-69
2022/08/18 03:23:03;;;;;;;38.13;34.03;;;12.60;99.90;;;;;;5078315;28;20184;-69
2022/08/18 03:25:29;;;;;;;39.80;35.73;;;12.60;99.90;;;;;;5085211;28;20179;-69
2022/08/18 03:27:55;;;;;;;40.53;36.23;;;12.80;99.90;;;;;;5078251;28;20636;-69
2022/08/18 03:30:22;;;;;;;39.33;34.23;;;12.90;99.90;;;;;;5079186;28;20191;-71
2022/08/18 03:32:48;;;;;;;43.77;37.83;;;13.30;99.90;;;;;;5077903;28;20555;-70
2022/08/18 03:35:15;;;;;;;49.07;36.63;;;13.30;99.90;;;;;;5078934;28;20202;-69
2022/08/18 03:37:41;;;;;;;42.27;35.93;;;13.30;99.90;;;;;;5079266;28;20214;-69
2022/08/18 03:40:09;;;;;;;40.77;35.87;;;13.00;99.90;;;;;;5078227;28;20183;-70
2022/08/18 03:42:36;;;;;;;41.47;36.37;;;12.90;99.90;;;;;;5078392;28;20209;-71
2022/08/18 03:45:02;;;;;;;47.27;39.23;;;13.10;99.90;;;;;;5078704;28;20182;-70
2022/08/18 03:47:27;;;;;;;46.80;39.27;;;12.90;99.90;;;;;;5078179;28;20461;-71
2022/08/18 03:49:53;;;;;;;42.00;37.40;;;13.10;99.90;;;;;;5077631;28;20229;-70
2022/08/18 03:52:19;;;;;;;44.23;37.97;;;13.10;99.90;;;;;;5077010;28;20183;-69
2022/08/18 03:54:45;;;;;;;43.10;38.43;;;12.90;99.90;;;;;;5078673;28;20204;-69
2022/08/18 03:57:11;;;;;;;44.97;40.07;;;13.20;99.90;;;;;;5077441;28;20186;-70
2022/08/18 03:59:42;;;;;;;47.57;39.17;;;13.30;99.90;;;;;;5076862;28;20222;-69
2022/08/18 04:02:09;;;;;;;45.17;38.03;;;13.10;99.90;;;;;;5082554;28;20179;-70
2022/08/18 04:04:35;;;;;;;51.10;39.83;;;13.20;99.90;;;;;;5078417;28;20309;-69
2022/08/18 04:07:07;;;;;;;44.07;39.17;;;12.90;99.90;;;;;;5077936;28;20582;-69
2022/08/18 04:09:34;;;;;;;53.50;39.40;;;13.50;99.90;;;;;;5077820;28;20183;-68
2022/08/18 04:12:14;;;;;;;65.37;39.30;;;13.40;99.90;;;;;;5077617;28;20179;-70
2022/08/18 04:14:41;;;;;;;53.67;39.47;;;13.20;99.90;;;;;;5077469;28;20312;-71
2022/08/18 04:17:08;;;;;;;47.33;38.83;;;13.50;99.90;;;;;;5078670;28;20601;-69
2022/08/18 04:19:34;;;;;;;45.83;38.07;;;13.30;99.90;;;;;;5076584;28;20516;-68
2022/08/18 04:22:01;;;;;;;47.83;38.00;;;13.40;99.90;;;;;;5077893;28;20187;-71
2022/08/18 04:24:29;;;;;;;46.07;37.63;;;13.70;99.90;;;;;;5084148;28;20176;-70
2022/08/18 04:26:57;;;;;;;48.00;41.97;;;13.60;99.90;;;;;;5078469;28;20262;-70
2022/08/18 04:29:23;;;;;;;51.93;44.60;;;13.60;99.90;;;;;;5077551;28;20490;-69
2022/08/18 04:31:50;;;;;;;54.03;40.83;;;13.60;99.90;;;;;;5076796;28;20214;-70
2022/08/18 04:34:19;;;;;;;52.70;43.27;;;13.80;99.90;;;;;;5081609;28;20261;-69
2022/08/18 04:36:45;;;;;;;46.00;40.63;;;13.50;99.90;;;;;;5076722;28;20183;-69
2022/08/18 04:39:12;;;;;;;52.23;42.70;;;13.70;99.90;;;;;;5083011;28;20303;-68
2022/08/18 04:41:40;;;;;;;56.63;44.63;;;13.90;99.90;;;;;;5077484;28;20163;-72
2022/08/18 04:44:07;;;;;;;47.23;38.93;;;14.00;99.90;;;;;;5077437;28;20191;-71
2022/08/18 04:46:39;;;;;;;44.47;37.77;;;13.80;99.90;;;;;;5082799;28;20179;-69
2022/08/18 04:49:06;;;;;;;39.67;34.73;;;13.90;99.90;;;;;;5081607;28;20626;-70
2022/08/18 04:51:33;;;;;;;35.87;32.03;;;13.70;99.90;;;;;;5082441;28;20258;-69
2022/08/18 04:53:59;;;;;;;36.77;32.83;;;13.90;99.90;;;;;;5076396;28;20182;-69
2022/08/18 04:56:32;;;;;;;38.40;33.63;;;13.70;99.90;;;;;;5084504;28;20205;-71
2022/08/18 04:59:01;;;;;;;41.43;35.13;;;13.60;99.90;;;;;;5084988;28;20255;-70
2022/08/18 05:01:29;;;;;;;32.33;28.93;;;13.60;99.90;;;;;;5076587;28;20222;-69
2022/08/18 05:03:57;;;;;;;27.03;24.07;;;13.90;99.90;;;;;;5075780;28;20179;-71
2022/08/18 05:06:25;;;;;;;29.43;26.43;;;13.80;99.90;;;;;;5076145;28;20174;-68
2022/08/18 05:08:53;;;;;;;27.57;24.63;;;13.70;99.90;;;;;;5076359;28;20191;-69
2022/08/18 05:11:23;;;;;;;27.10;24.33;;;13.70;99.90;;;;;;5077502;28;20575;-70
2022/08/18 05:13:51;;;;;;;28.10;25.13;;;13.40;99.90;;;;;;5082235;28;20191;-69
2022/08/18 05:16:17;;;;;;;28.73;24.17;;;13.70;99.90;;;;;;5081002;28;20213;-68
2022/08/18 05:18:43;;;;;;;30.33;27.20;;;13.60;99.90;;;;;;5076727;28;20542;-70
2022/08/18 05:21:14;;;;;;;29.93;26.87;;;13.60;99.90;;;;;;5077025;28;20171;-71
2022/08/18 05:23:45;;;;;;;28.50;25.57;;;13.60;99.90;;;;;;5077146;28;20582;-69
2022/08/18 05:26:13;;;;;;;30.03;26.90;;;13.80;99.90;;;;;;5074759;28;20210;-70
2022/08/18 05:28:40;;;;;;;35.43;28.30;;;14.00;99.90;;;;;;5075621;28;20179;-70
2022/08/18 05:31:08;;;;;;;33.90;27.67;;;13.80;99.90;;;;;;5080019;28;20186;-70
2022/08/18 05:33:35;;;;;;;31.77;28.50;;;13.80;99.90;;;;;;5088569;28;20646;-71
2022/08/18 05:36:09;;;;;;;36.17;25.97;;;13.90;99.90;;;;;;5086666;28;20601;-74
2022/08/18 05:38:45;;;;;;;27.17;24.23;;;13.70;99.90;;;;;;5076107;28;20317;-69
2022/08/18 05:41:21;;;;;;;28.70;25.90;;;13.90;99.90;;;;;;5076336;28;20178;-72
2022/08/18 05:43:47;;;;;;;32.60;26.17;;;14.10;99.90;;;;;;5076464;28;20179;-74
2022/08/18 05:46:15;;;;;;;31.90;26.37;;;13.90;99.90;;;;;;5080737;28;20591;-71
2022/08/18 05:48:41;;;;;;;28.53;25.60;;;14.00;99.90;;;;;;5076026;28;20203;-69
2022/08/18 05:51:26;;;;;;;27.33;23.87;;;13.80;99.90;;;;;;5076992;28;20178;-71
2022/08/18 05:56:48;;;;;;;27.67;24.77;;;13.90;99.90;;;;;;5077194;28;20475;-69
2022/08/18 05:59:31;;;;;;;45.43;26.23;;;13.80;99.90;;;;;;5080508;28;20549;-70
2022/08/18 06:02:07;;;;;;;28.73;25.87;;;13.80;99.90;;;;;;5076274;28;20190;-69
2022/08/18 06:04:46;;;;;;;27.67;24.80;;;14.10;99.90;;;;;;5080598;28;20328;-72
2022/08/18 06:07:26;;;;;;;27.57;24.80;;;13.80;99.90;;;;;;5075354;28;20175;-68
2022/08/18 06:09:54;;;;;;;30.87;27.73;;;13.80;99.90;;;;;;5076551;28;20254;-74
2022/08/18 06:12:28;;;;;;;33.10;28.23;;;14.50;99.90;;;;;;5075179;28;20183;-67
2022/08/18 06:15:13;;;;;;;36.33;27.80;;;15.00;99.90;;;;;;5076592;28;20234;-69
2022/08/18 06:17:51;;;;;;;36.17;30.97;;;15.30;99.90;;;;;;5075257;28;20195;-70
2022/08/18 06:20:39;;;;;;;41.90;33.27;;;15.40;99.90;;;;;;5075469;28;20187;-67
2022/08/18 06:23:32;;;;;;;37.63;33.73;;;15.40;99.90;;;;;;5079436;28;20670;-71
2022/08/18 06:26:06;;;;;;;36.33;32.40;;;15.70;99.90;;;;;;5078753;28;20241;-69
2022/08/18 06:28:45;;;;;;;42.10;36.67;;;15.60;99.90;;;;;;5078477;28;20453;-75
2022/08/18 06:31:28;;;;;;;40.10;35.77;;;15.70;99.90;;;;;;5086364;28;20191;-69
2022/08/18 06:34:31;;;;;;;37.70;32.67;;;15.70;99.90;;;;;;5080059;28;20198;-67
2022/08/18 06:37:16;;;;;;;40.77;33.20;;;15.70;99.90;;;;;;5080021;28;20214;-72
2022/08/18 06:39:48;;;;;;;38.90;34.17;;;14.60;99.90;;;;;;5082493;28;20267;-70
2022/08/18 06:42:29;;;;;;;38.37;34.40;;;14.10;99.90;;;;;;5086193;28;20274;-71
2022/08/18 06:45:03;;;;;;;37.20;33.10;;;13.70;99.90;;;;;;5079714;28;20183;-70
2022/08/18 06:47:52;;;;;;;39.97;33.23;;;11.60;99.90;;;;;;5080140;28;20225;-69
2022/08/18 06:50:24;;;;;;;40.90;34.33;;;16.40;99.90;;;;;;5079786;28;20199;-68
2022/08/18 06:53:03;;;;;;;33.60;30.10;;;15.80;99.90;;;;;;5079782;28;20171;-69
2022/08/18 06:55:39;;;;;;;34.30;30.27;;;16.00;99.90;;;;;;5082155;28;20220;-70
2022/08/18 06:58:28;;;;;;;36.13;31.23;;;15.40;99.90;;;;;;5079242;28;20252;-67
2022/08/18 07:01:01;;;;;;;30.93;27.63;;;15.00;99.90;;;;;;5077757;28;20524;-70
2022/08/18 07:03:35;;;;;;;32.03;28.67;;;14.70;99.90;;;;;;5078739;28;20306;-69
2022/08/18 07:06:10;;;;;;;31.27;28.13;;;13.60;99.90;;;;;;5081269;28;20221;-69
2022/08/18 07:08:44;;;;;;;30.07;26.77;;;19.60;99.90;;;;;;5079377;28;20281;-68
2022/08/18 07:11:23;;;;;;;40.63;27.33;;;19.60;99.90;;;;;;5078390;28;20180;-69
2022/08/18 07:13:51;;;;;;;27.53;24.77;;;19.60;99.90;;;;;;5078027;28;20182;-70
2022/08/18 07:16:24;;;;;;;27.20;24.53;;;19.50;99.90;;;;;;5079335;28;20590;-71
2022/08/18 07:18:50;;;;;;;32.50;27.27;;;19.50;99.90;;;;;;5078573;28;20234;-70
2022/08/18 07:21:32;;;;;;;29.57;24.93;;;19.20;99.90;;;;;;5079671;28;20184;-71
2022/08/18 07:24:06;;;;;;;26.33;23.50;;;18.90;99.90;;;;;;5078667;28;20181;-68
2022/08/18 07:27:00;;;;;;;22.00;19.77;;;18.60;99.90;;;;;;5079222;28;20191;-74
2022/08/18 07:29:28;;;;;;;25.47;21.03;;;18.10;99.90;;;;;;5078399;28;20182;-69
2022/08/18 07:31:56;;;;;;;25.80;23.20;;;18.00;99.90;;;;;;5079074;28;20194;-69
2022/08/18 07:34:45;;;;;;;24.80;22.40;;;17.80;99.90;;;;;;5078361;28;20461;-69
2022/08/18 07:37:27;;;;;;;27.90;25.40;;;17.60;99.90;;;;;;5093008;28;20244;-68
2022/08/18 07:40:05;;;;;;;29.57;25.13;;;17.40;99.90;;;;;;5078557;28;20179;-69
2022/08/18 07:42:55;;;;;;;23.63;21.40;;;17.10;99.90;;;;;;5078575;28;20481;-73
2022/08/18 07:45:31;;;;;;;26.33;23.60;;;16.80;99.90;;;;;;5078694;28;20218;-71
2022/08/18 07:48:24;;;;;;;26.93;24.27;;;13.60;99.90;;;;;;5085254;28;20179;-69
2022/08/18 07:51:00;;;;;;;27.03;23.63;;;13.80;99.90;;;;;;5078650;28;20175;-71
2022/08/18 07:53:44;;;;;;;37.10;26.83;;;10.40;99.90;;;;;;5077810;28;20228;-69
2022/08/18 07:56:54;;;;;;;26.87;24.30;;;18.70;99.90;;;;;;5077540;28;20598;-70
2022/08/18 07:59:50;;;;;;;28.67;25.63;;;21.60;99.90;;;;;;5076963;28;20254;-70
2022/08/18 08:02:16;;;;;;;25.53;22.90;;;21.80;99.90;;;;;;5077533;28;20183;-69
2022/08/18 08:04:54;;;;;;;27.53;22.83;;;21.60;99.90;;;;;;5078393;28;20174;-72
2022/08/18 08:07:28;;;;;;;19.87;17.87;;;-3.90;99.90;;;;;;5075665;28;20473;-70
2022/08/18 08:10:35;;;;;;;18.27;16.77;;;-6.80;99.90;;;;;;5083779;28;20236;-72
2022/08/18 08:13:20;;;;;;;17.00;15.40;;;-7.30;99.90;;;;;;5077509;28;20190;-69
2022/08/18 08:16:09;;;;;;;15.70;14.03;;;-5.60;99.90;;;;;;5083094;28;20176;-69
2022/08/18 08:19:07;;;;;;;15.80;14.33;;;-8.20;99.90;;;;;;5081224;28;20485;-72
2022/08/18 08:21:42;;;;;;;20.87;14.80;;;-5.40;99.90;;;;;;5078844;28;20186;-70
2022/08/18 08:24:35;;;;;;;13.70;12.23;;;-2.80;99.90;;;;;;5081109;28;20178;-72
2022/08/18 08:27:38;;;;;;;14.07;12.73;;;-3.00;99.90;;;;;;5087518;28;20575;-68
2022/08/18 08:30:11;;;;;;;14.20;12.77;;;-4.70;99.90;;;;;;5076836;28;20190;-67
2022/08/18 08:32:51;;;;;;;13.70;12.47;;;-3.70;99.90;;;;;;5078043;28;20313;-71
2022/08/18 08:35:37;;;;;;;13.20;11.67;;;-3.90;99.90;;;;;;5078320;28;20190;-69
2022/08/18 08:38:13;;;;;;;13.80;12.50;;;-2.60;99.90;;;;;;5077652;28;20508;-74
2022/08/18 08:40:58;;;;;;;13.70;12.43;;;-2.00;99.90;;;;;;5077404;28;20183;-69
2022/08/18 08:43:30;;;;;;;14.27;13.03;;;-4.20;99.90;;;;;;5092953;28;20251;-68
2022/08/18 08:46:11;;;;;;;14.67;13.57;;;-2.30;99.90;;;;;;5077735;28;20249;-70
2022/08/18 08:48:49;;;;;;;15.33;14.03;;;-3.70;99.90;;;;;;5077489;28;20206;-69
2022/08/18 08:51:27;;;;;;;15.37;13.77;;;-2.40;99.90;;;;;;5077292;28;20194;-71
2022/08/18 08:54:13;;;;;;;14.03;12.70;;;-3.10;99.90;;;;;;5077085;28;20236;-72
2022/08/18 08:56:46;;;;;;;13.20;11.97;;;-1.30;99.90;;;;;;5077226;28;20183;-69
2022/08/18 08:59:16;;;;;;;13.03;11.77;;;-5.50;99.90;;;;;;5075896;28;20211;-72
2022/08/18 09:01:55;;;;;;;12.73;11.43;;;-2.80;99.90;;;;;;5085281;28;20189;-72
2022/08/18 09:04:48;;;;;;;13.43;12.20;;;-5.30;99.90;;;;;;5081584;28;20250;-69
2022/08/18 09:07:14;;;;;;;11.30;10.30;;;-4.50;99.90;;;;;;5076661;28;20473;-70
2022/08/18 09:09:55;;;;;;;11.90;10.43;;;-7.90;99.90;;;;;;5077007;28;20175;-71
2022/08/18 09:12:52;;;;;;;13.23;11.50;;;22.60;99.90;;;;;;5076723;28;20218;-69
2022/08/18 09:15:18;;;;;;;13.07;11.80;;;22.60;99.90;;;;;;5076555;28;20179;-74
2022/08/18 09:17:48;;;;;;;13.07;11.97;;;22.10;99.90;;;;;;5074093;28;20194;-69
2022/08/18 09:20:49;;;;;;;13.23;12.13;;;22.50;99.90;;;;;;5081342;28;20213;-71
2022/08/18 09:23:38;;;;;;;13.73;12.43;;;-2.40;99.90;;;;;;5051801;28;20195;-70
2022/08/18 09:26:39;;;;;;;13.47;12.27;;;23.20;99.90;;;;;;5079507;28;20206;-71
2022/08/18 09:29:17;;;;;;;15.07;12.57;;;23.20;99.90;;;;;;5052458;28;20272;-71
2022/08/18 09:31:45;;;;;;;13.90;12.63;;;23.20;99.90;;;;;;5076931;28;20198;-71
2022/08/18 09:34:11;;;;;;;12.67;11.43;;;23.10;99.90;;;;;;5077049;28;20196;-69
2022/08/18 09:37:16;;;;;;;11.87;10.73;;;23.00;99.90;;;;;;5077106;28;20167;-70
2022/08/18 09:43:09;;;;;;;13.73;12.33;;;22.90;99.90;;;;;;5076307;28;20257;-75
2022/08/18 09:45:58;;;;;;;12.70;11.50;;;22.70;99.90;;;;;;5074365;28;20256;-72
2022/08/18 09:48:30;;;;;;;15.47;13.80;;;22.40;99.90;;;;;;5081979;28;20204;-68
2022/08/18 09:51:17;;;;;;;13.60;12.40;;;22.10;99.90;;;;;;5081077;28;20206;-74
2022/08/18 09:53:46;;;;;;;12.97;11.63;;;21.90;99.90;;;;;;5075557;28;20229;-73
2022/08/18 09:56:37;;;;;;;13.57;12.27;;;21.80;99.90;;;;;;5078168;28;20171;-73
2022/08/18 09:59:04;;;;;;;12.47;11.53;;;21.80;99.90;;;;;;5080407;28;20198;-72
2022/08/18 10:01:35;;;;;;;13.13;11.93;;;21.60;99.90;;;;;;5080103;28;20175;-75
2022/08/18 10:04:18;;;;;;;11.30;10.30;;;21.60;99.90;;;;;;5080254;28;20174;-76
2022/08/18 10:06:48;;;;;;;32.87;12.67;;;20.90;99.90;;;;;;5079643;28;20186;-72
2022/08/18 10:09:27;;;;;;;16.63;10.90;;;-1.50;99.90;;;;;;5080649;28;20186;-74
2022/08/18 10:12:15;;;;;;;11.93;10.73;;;-8.50;99.90;;;;;;5086454;28;20175;-70
2022/08/18 10:14:43;;;;;;;9.27;8.37;;;-11.80;99.90;;;;;;5083857;28;20179;-73
2022/08/18 10:17:15;;;;;;;8.60;8.00;;;-13.40;99.90;;;;;;5079846;28;20189;-75
2022/08/18 10:19:49;;;;;;;8.60;7.77;;;-13.70;99.90;;;;;;5078813;28;20238;-77
2022/08/18 10:22:36;;;;;;;9.77;8.77;;;-20.20;99.60;;;;;;5080132;28;20186;-75
2022/08/18 10:25:01;;;;;;;19.07;9.40;;;-21.70;99.00;;;;;;5078019;28;20187;-75
2022/08/18 10:27:45;;;;;;;8.80;8.00;;;-29.20;97.50;;;;;;5080090;28;20682;-70
2022/08/18 10:30:35;;;;;;;10.70;9.00;;;-40.00;91.20;;;;;;5080436;28;20642;-76
2022/08/18 10:33:03;;;;;;;8.77;8.07;;;-40.00;91.90;;;;;;5070991;28;20192;-75
2022/08/18 10:35:35;;;;;;;7.97;6.97;;;18.20;99.90;;;;;;5079109;28;20179;-73
2022/08/18 10:38:27;;;;;;;8.10;7.10;;;25.30;99.90;;;;;;5080037;28;20268;-77
2022/08/18 10:41:08;;;;;;;8.70;7.67;;;25.40;99.90;;;;;;5079938;28;20171;-76
2022/08/18 10:43:42;;;;;;;7.37;6.77;;;25.40;99.90;;;;;;5079476;28;20191;-74
2022/08/18 10:46:24;;;;;;;8.23;7.53;;;25.60;99.90;;;;;;5079452;28;20213;-73
2022/08/18 10:49:11;;;;;;;8.73;7.83;;;25.70;99.90;;;;;;5079117;28;20206;-75
2022/08/18 10:51:57;;;;;;;8.67;6.07;;;-40.00;85.10;;;;;;5078667;28;20179;-70
2022/08/18 10:54:48;;;;;;;6.53;5.77;;;-40.00;87.50;;;;;;5078673;28;20171;-73
2022/08/18 10:57:42;;;;;;;6.67;6.17;;;-40.00;79.80;;;;;;5079207;28;20650;-72
2022/08/18 11:00:17;;;;;;;7.30;6.70;;;-40.00;78.70;;;;;;5082986;28;20206;-69
2022/08/18 11:03:22;;;;;;;6.77;6.17;;;-40.00;78.20;;;;;;5081463;28;20602;-72
2022/08/18 11:05:48;;;;;;;6.60;5.90;;;-40.00;79.40;;;;;;5077760;28;20186;-69
2022/08/18 11:08:18;;;;;;;8.87;7.37;;;-40.00;80.30;;;;;;5076955;28;20527;-71
2022/08/18 11:10:47;;;;;;;6.47;5.87;;;-40.00;83.00;;;;;;5084965;28;20615;-71
2022/08/18 11:13:28;;;;;;;7.80;7.13;;;-40.00;82.10;;;;;;5077771;28;20254;-70
2022/08/18 11:16:09;;;;;;;6.53;6.10;;;-40.00;83.50;;;;;;5077762;28;20691;-78
2022/08/18 11:18:40;;;;;;;9.37;6.73;;;-40.00;81.50;;;;;;5077057;28;20315;-69
2022/08/18 11:21:24;;;;;;;6.47;5.83;;;-40.00;81.00;;;;;;5078148;28;20683;-75
2022/08/18 11:24:08;;;;;;;6.47;5.97;;;-40.00;76.90;;;;;;5078168;28;20171;-72
2022/08/18 11:26:39;;;;;;;7.03;6.33;;;-40.00;71.90;;;;;;5078124;28;20172;-71
2022/08/18 11:29:38;;;;;;;5.30;5.00;;;-40.00;71.80;;;;;;5078089;28;20186;-72
2022/08/18 11:32:22;;;;;;;6.97;6.23;;;-40.00;69.20;;;;;;5077653;28;20180;-73
2022/08/18 11:34:50;;;;;;;8.10;7.43;;;-40.00;71.50;;;;;;5080756;28;20229;-72
2022/08/18 11:37:24;;;;;;;9.97;8.10;;;-40.00;69.70;;;;;;5076908;28;20248;-68
2022/08/18 11:39:54;;;;;;;6.80;6.30;;;-40.00;71.80;;;;;;5077153;28;20244;-69
2022/08/18 11:42:28;;;;;;;10.13;7.27;;;-40.00;70.70;;;;;;5076722;28;20176;-72
2022/08/18 11:45:15;;;;;;;7.87;7.17;;;-40.00;68.90;;;;;;5084265;28;20225;-74
2022/08/18 11:48:13;;;;;;;7.90;7.33;;;-40.00;68.40;;;;;;5082816;28;20178;-71
2022/08/18 11:50:45;;;;;;;6.80;6.10;;;-40.00;73.60;;;;;;5053343;28;20186;-70
2022/08/18 11:53:34;;;;;;;6.17;5.77;;;-40.00;68.40;;;;;;5076818;28;20220;-73
2022/08/18 11:56:38;;;;;;;5.17;4.87;;;-40.00;67.20;;;;;;5077340;28;20289;-75
2022/08/18 11:59:27;;;;;;;5.70;5.40;;;-40.00;61.40;;;;;;5034896;28;1208769;-73
2022/08/18 12:01:55;;;;;;;5.87;5.43;;;-40.00;60.00;;;;;;5078912;28;20433;-73
2022/08/18 12:04:51;;;;;;;7.43;5.93;;;-40.00;60.00;;;;;;5077606;28;20274;-73
2022/08/18 12:07:30;;;;;;;6.17;5.63;;;-40.00;59.60;;;;;;5086942;28;20583;-72
2022/08/18 12:10:19;;;;;;;6.47;6.03;;;-40.00;61.00;;;;;;5088681;28;20186;-78
2022/08/18 12:12:50;;;;;;;7.90;6.97;;;-40.00;63.90;;;;;;5077702;28;20186;-74
2022/08/18 12:15:18;;;;;;;7.10;6.50;;;-40.00;61.40;;;;;;5078677;28;21937;-73
2022/08/18 12:17:47;;;;;;;8.33;7.53;;;-40.00;63.10;;;;;;5077672;28;20179;-73
2022/08/18 12:20:15;;;;;;;7.83;7.07;;;-40.00;58.00;;;;;;5081703;28;20180;-71
2022/08/18 12:22:42;;;;;;;6.47;5.97;;;-40.00;56.00;;;;;;5078133;28;20606;-70
2022/08/18 12:25:12;;;;;;;7.40;6.80;;;26.20;93.20;;;;;;5076906;28;20179;-72
2022/08/18 12:27:39;;;;;;;8.30;6.60;;;30.80;93.40;;;;;;5077933;28;20179;-69
2022/08/18 12:30:07;;;;;;;7.25;6.65;;;31.00;93.70;;;;;;5078432;28;20218;-72
2022/08/18 12:32:34;;;;;;;11.82;7.43;;;-40.00;50.30;;;;;;5077596;28;20183;-73
2022/08/18 12:35:01;;;;;;;6.57;6.18;;;-40.00;50.50;;;;;;5080844;28;20441;-76
2022/08/18 12:37:28;;;;;;;5.85;5.40;;;31.90;93.40;;;;;;5077297;28;20183;-76
2022/08/18 12:39:56;;;;;;;6.55;6.05;;;31.80;91.00;;;;;;5076759;28;20214;-77
2022/08/18 12:42:23;;;;;;;6.70;6.20;;;32.40;91.40;;;;;;5076234;28;20480;-75
2022/08/18 12:44:50;;;;;;;6.82;6.32;;;30.50;89.80;;;;;;5077696;28;20700;-74
2022/08/18 12:47:22;;;;;;;7.30;6.80;;;32.10;90.80;;;;;;5077070;28;20353;-74
2022/08/18 12:49:48;;;;;;;6.35;6.03;;;32.10;89.50;;;;;;5077499;28;20284;-75
2022/08/18 12:52:15;;;;;;;7.40;6.97;;;31.70;91.30;;;;;;5077565;28;20213;-75
2022/08/18 12:54:42;;;;;;;6.93;6.22;;;31.40;91.70;;;;;;5076910;28;20179;-76
2022/08/18 12:57:21;;;;;;;7.90;7.40;;;31.70;91.30;;;;;;5077316;28;20179;-69
2022/08/18 12:59:47;;;;;;;8.30;7.70;;;32.30;89.90;;;;;;5081997;28;20298;-74
2022/08/18 13:02:13;;;;;;;8.68;7.82;;;32.90;92.20;;;;;;5076436;28;20266;-77
2022/08/18 13:04:39;;;;;;;7.82;7.30;;;-40.00;45.80;;;;;;5076880;28;20182;-75
2022/08/18 13:07:06;;;;;;;7.78;7.18;;;-40.00;45.40;;;;;;5076492;28;20182;-75
2022/08/18 13:09:34;;;;;;;8.25;7.70;;;31.40;89.00;;;;;;5077917;28;20183;-76
2022/08/18 13:12:00;;;;;;;7.50;7.10;;;31.70;91.90;;;;;;5077129;28;20177;-76
2022/08/18 13:14:27;;;;;;;7.25;6.75;;;31.70;91.20;;;;;;5077817;28;20171;-77
2022/08/18 13:16:53;;;;;;;7.50;6.90;;;31.80;91.60;;;;;;5076757;28;20179;-71
2022/08/18 13:19:18;;;;;;;8.25;7.55;;;32.50;90.00;;;;;;5077192;28;20224;-74